createdAt,value
2019-03-05T00:01:12.012Z,6.42
2019-03-05T00:03:38.625Z,6.47
2019-03-05T00:06:05.437Z,6.50
2019-03-05T00:08:32.241Z,6.51
2019-03-05T00:10:58.840Z,6.50
2019-03-05T00:13:25.551Z,6.56
2019-03-05T00:15:53.270Z,6.58
2019-03-05T00:18:19.972Z,6.53
2019-03-05T00:20:46.675Z,6.53
2019-03-05T00:23:17.952Z,6.57
2019-03-05T00:25:44.648Z,6.62
2019-03-05T00:28:27.112Z,6.62
2019-03-05T00:31:10.764Z,6.56
2019-03-05T00:34:02.135Z,6.55
2019-03-05T00:36:41.352Z,6.55
2019-03-05T00:39:46.085Z,6.54
2019-03-05T00:42:50.702Z,6.53
2019-03-05T00:46:11.576Z,6.52
2019-03-05T00:49:14.601Z,6.50
2019-03-05T00:51:59.027Z,6.45
2019-03-05T00:55:09.395Z,6.50
2019-03-05T00:58:04.720Z,6.47
2019-03-05T01:00:45.373Z,6.56
2019-03-05T01:03:23.299Z,6.45
2019-03-05T01:06:22.880Z,6.41
2019-03-05T01:08:49.980Z,6.42
2019-03-05T01:11:17.496Z,6.50
2019-03-05T01:13:44.299Z,6.52
2019-03-05T01:16:12.729Z,6.54
2019-03-05T01:18:39.395Z,6.55
2019-03-05T01:21:06.192Z,6.55
2019-03-05T01:23:32.816Z,6.53
2019-03-05T01:25:59.634Z,6.47
2019-03-05T01:28:26.349Z,6.51
2019-03-05T01:31:02.506Z,6.55
2019-03-05T01:33:33.363Z,6.52
2019-03-05T01:36:10.016Z,6.48
2019-03-05T01:38:46.177Z,6.51
2019-03-05T01:41:13.176Z,6.51
2019-03-05T01:43:40.021Z,6.52
2019-03-05T01:46:06.621Z,6.53
2019-03-05T01:48:33.346Z,6.53
2019-03-05T01:50:59.976Z,6.48
2019-03-05T01:53:26.667Z,6.50
2019-03-05T01:55:53.263Z,6.52
2019-03-05T01:58:19.883Z,6.48
2019-03-05T02:00:46.575Z,6.50
2019-03-05T02:03:13.384Z,6.47
2019-03-05T02:05:40.398Z,6.58
2019-03-05T02:08:07.394Z,6.51
2019-03-05T02:10:33.981Z,6.56
2019-03-05T02:13:00.643Z,6.53
2019-03-05T02:15:27.472Z,6.43
2019-03-05T02:17:54.207Z,6.45
2019-03-05T02:20:22.734Z,6.44
2019-03-05T02:22:59.434Z,6.29
2019-03-05T02:25:57.166Z,6.22
2019-03-05T02:28:38.323Z,6.09
2019-03-05T02:31:30.443Z,5.90
2019-03-05T02:34:30.876Z,5.85
2019-03-05T02:37:45.367Z,5.83
2019-03-05T02:40:53.017Z,5.76
2019-03-05T02:43:45.375Z,5.65
2019-03-05T02:47:02.054Z,5.21
2019-03-05T02:49:41.358Z,4.82
2019-03-05T02:52:40.754Z,4.31
2019-03-05T02:55:33.886Z,4.26
2019-03-05T02:57:59.779Z,4.31
2019-03-05T03:00:37.299Z,4.25
2019-03-05T03:03:15.009Z,4.12
2019-03-05T03:05:46.472Z,4.11
2019-03-05T03:08:13.160Z,4.09
2019-03-05T03:10:39.979Z,4.14
2019-03-05T03:13:06.714Z,4.02
2019-03-05T03:15:33.505Z,4.14
2019-03-05T03:18:00.192Z,4.29
2019-03-05T03:20:26.902Z,4.48
2019-03-05T03:22:53.738Z,4.45
2019-03-05T03:25:21.455Z,4.48
2019-03-05T03:27:48.715Z,4.28
2019-03-05T03:30:19.770Z,4.36
2019-03-05T03:32:46.503Z,4.41
2019-03-05T03:35:13.893Z,4.49
2019-03-05T03:37:40.488Z,4.49
2019-03-05T03:40:09.882Z,4.51
2019-03-05T03:42:36.488Z,4.52
2019-03-05T03:45:04.411Z,4.56
2019-03-05T03:47:31.109Z,4.61
2019-03-05T03:49:57.727Z,4.72
2019-03-05T03:52:24.344Z,4.71
2019-03-05T03:54:51.242Z,4.74
2019-03-05T03:57:17.950Z,4.80
2019-03-05T03:59:44.754Z,4.80
2019-03-05T04:02:11.443Z,4.78
2019-03-05T04:04:38.262Z,4.89
2019-03-05T04:07:04.883Z,4.83
2019-03-05T04:09:31.683Z,4.83
2019-03-05T04:11:58.318Z,4.90
2019-03-05T04:14:24.929Z,4.88
2019-03-05T04:16:51.515Z,4.87
2019-03-05T04:19:22.841Z,4.84
2019-03-05T04:21:49.545Z,4.90
2019-03-05T04:24:16.149Z,5.05
2019-03-05T04:26:42.904Z,5.01
2019-03-05T04:29:09.489Z,5.01
2019-03-05T04:31:36.104Z,5.00
2019-03-05T04:34:02.934Z,5.02
2019-03-05T04:36:29.527Z,5.05
2019-03-05T04:38:56.106Z,5.06
2019-03-05T04:41:22.852Z,5.08
2019-03-05T04:43:49.555Z,5.09
2019-03-05T04:46:34.660Z,5.08
2019-03-05T04:49:26.407Z,5.11
2019-03-05T04:51:57.796Z,5.09
2019-03-05T04:54:24.528Z,5.03
2019-03-05T04:56:51.332Z,5.00
2019-03-05T04:59:17.943Z,5.14
2019-03-05T05:01:44.583Z,5.14
2019-03-05T05:04:11.223Z,5.15
2019-03-05T05:06:37.927Z,5.14
2019-03-05T05:09:05.432Z,5.23
2019-03-05T05:11:32.136Z,5.20
2019-03-05T05:13:58.720Z,5.30
2019-03-05T05:16:25.628Z,5.26
2019-03-05T05:18:52.321Z,5.27
2019-03-05T05:21:18.915Z,5.26
2019-03-05T05:23:45.542Z,5.29
2019-03-05T05:26:12.151Z,5.32
2019-03-05T05:28:38.751Z,5.31
2019-03-05T05:31:05.473Z,5.35
2019-03-05T05:33:32.048Z,5.36
2019-03-05T05:35:58.891Z,5.36
2019-03-05T05:38:25.635Z,5.37
2019-03-05T05:40:52.337Z,5.28
2019-03-05T05:43:27.501Z,5.35
2019-03-05T05:45:54.495Z,5.35
2019-03-05T05:48:21.195Z,5.36
2019-03-05T05:50:48.259Z,5.40
2019-03-05T05:53:15.034Z,5.42
2019-03-05T05:55:43.844Z,5.42
2019-03-05T05:58:10.547Z,5.45
2019-03-05T06:00:40.995Z,5.44
2019-03-05T06:03:07.786Z,5.49
2019-03-05T06:05:34.607Z,5.51
2019-03-05T06:08:01.220Z,5.52
2019-03-05T06:10:27.919Z,5.48
2019-03-05T06:12:54.510Z,5.49
2019-03-05T06:15:21.314Z,5.58
2019-03-05T06:17:47.910Z,5.58
2019-03-05T06:20:14.707Z,5.67
2019-03-05T06:22:41.327Z,5.59
2019-03-05T06:25:08.155Z,5.59
2019-03-05T06:27:34.954Z,5.58
2019-03-05T06:30:01.562Z,5.56
2019-03-05T06:32:28.257Z,5.59
2019-03-05T06:34:54.985Z,5.63
2019-03-05T06:37:21.635Z,5.59
2019-03-05T06:39:48.244Z,5.66
2019-03-05T06:42:14.888Z,5.67
2019-03-05T06:44:41.625Z,5.62
2019-03-05T06:47:08.229Z,5.69
2019-03-05T06:49:34.815Z,5.66
2019-03-05T06:52:01.587Z,5.64
2019-03-05T06:54:28.185Z,5.66
2019-03-05T06:56:54.862Z,5.72
2019-03-05T06:59:21.436Z,5.67
2019-03-05T07:01:48.052Z,5.62
2019-03-05T07:04:14.651Z,5.65
2019-03-05T07:06:54.604Z,5.62
2019-03-05T07:10:05.275Z,5.67
2019-03-05T07:12:49.120Z,5.58
2019-03-05T07:15:56.767Z,5.66
2019-03-05T07:18:27.172Z,5.69
2019-03-05T07:21:20.400Z,5.68
2019-03-05T07:24:32.610Z,5.70
2019-03-05T07:26:59.320Z,5.66
2019-03-05T07:29:25.947Z,5.62
2019-03-05T07:31:52.660Z,5.60
2019-03-05T07:34:23.075Z,5.66
2019-03-05T07:36:49.809Z,5.56
2019-03-05T07:39:21.231Z,5.46
2019-03-05T07:41:48.271Z,5.44
2019-03-05T07:44:15.156Z,5.38
2019-03-05T07:46:41.892Z,5.45
2019-03-05T07:49:08.697Z,5.45
2019-03-05T07:51:35.457Z,5.47
2019-03-05T07:54:02.043Z,5.45
2019-03-05T07:56:28.648Z,5.39
2019-03-05T07:58:55.286Z,5.42
2019-03-05T08:01:22.732Z,5.43
2019-03-05T08:03:49.394Z,5.40
2019-03-05T08:06:16.115Z,5.49
2019-03-05T08:09:19.880Z,5.41
2019-03-05T08:11:46.534Z,5.38
2019-03-05T08:14:44.412Z,5.47
2019-03-05T08:17:11.135Z,5.34
2019-03-05T08:19:37.729Z,5.49
2019-03-05T08:22:05.609Z,5.34
2019-03-05T08:24:32.302Z,5.29
2019-03-05T08:26:58.900Z,5.28
2019-03-05T08:29:25.585Z,5.32
2019-03-05T08:31:52.226Z,5.32
2019-03-05T08:34:18.940Z,5.30
2019-03-05T08:36:45.643Z,5.19
2019-03-05T08:39:12.360Z,5.14
2019-03-05T08:41:39.072Z,4.98
2019-03-05T08:44:05.807Z,4.93
2019-03-05T08:46:33.020Z,5.03
2019-03-05T08:48:59.851Z,4.91
2019-03-05T08:51:26.451Z,4.90
2019-03-05T08:53:53.097Z,4.97
2019-03-05T08:56:20.006Z,4.92
2019-03-05T08:58:46.728Z,4.93
2019-03-05T09:01:13.340Z,4.87
2019-03-05T09:03:39.977Z,4.92
2019-03-05T09:06:06.768Z,5.08
2019-03-05T09:08:33.541Z,4.99
2019-03-05T09:11:00.334Z,5.10
2019-03-05T09:13:32.564Z,4.96
2019-03-05T09:15:55.581Z,5.02
2019-03-05T09:18:22.187Z,5.14
2019-03-05T09:20:49.001Z,5.22
2019-03-05T09:23:16.016Z,5.32
2019-03-05T09:25:42.750Z,5.27
2019-03-05T09:28:09.473Z,5.30
2019-03-05T09:30:36.095Z,5.26
2019-03-05T09:33:02.811Z,5.47
2019-03-05T09:35:29.546Z,5.74
2019-03-05T09:37:56.426Z,5.94
2019-03-05T09:40:23.264Z,6.14
2019-03-05T09:42:50.247Z,6.27
2019-03-05T09:45:17.451Z,6.56
2019-03-05T09:47:44.260Z,6.28
2019-03-05T09:50:13.374Z,6.16
2019-03-05T09:52:40.299Z,5.83
2019-03-05T09:55:09.334Z,5.59
2019-03-05T09:57:38.114Z,5.54
2019-03-05T10:00:06.100Z,5.79
2019-03-05T10:02:33.317Z,5.74
2019-03-05T10:04:59.924Z,6.06
2019-03-05T10:07:26.555Z,6.13
2019-03-05T10:09:53.164Z,6.13
2019-03-05T10:12:19.959Z,6.18
2019-03-05T10:14:46.699Z,6.19
2019-03-05T10:17:13.322Z,5.95
2019-03-05T10:19:40.041Z,6.19
2019-03-05T10:22:07.067Z,6.60
2019-03-05T10:24:33.692Z,6.87
2019-03-05T10:27:00.310Z,7.43
2019-03-05T10:29:27.135Z,8.14
2019-03-05T10:31:53.852Z,8.00
2019-03-05T10:34:20.583Z,8.44
2019-03-05T10:36:47.412Z,9.00
2019-03-05T10:39:29.894Z,9.93
2019-03-05T10:41:49.697Z,8.82
2019-03-05T10:44:16.811Z,8.34
2019-03-05T10:46:43.970Z,8.90
2019-03-05T10:49:10.748Z,8.68
2019-03-05T10:51:37.555Z,8.23
2019-03-05T10:54:04.309Z,8.15
2019-03-05T10:56:31.278Z,7.88
2019-03-05T10:58:58.005Z,7.58
2019-03-05T11:01:24.711Z,7.74
2019-03-05T11:03:51.565Z,7.40
2019-03-05T11:06:18.390Z,7.16
2019-03-05T11:08:45.212Z,7.13
2019-03-05T11:11:13.843Z,7.14
2019-03-05T11:13:41.450Z,7.25
2019-03-05T11:16:08.319Z,7.38
2019-03-05T11:18:40.453Z,7.37
2019-03-05T11:21:07.577Z,7.61
2019-03-05T11:23:34.288Z,7.45
2019-03-05T11:26:00.919Z,7.50
2019-03-05T11:28:27.759Z,8.65
2019-03-05T11:30:54.586Z,8.59
2019-03-05T11:33:21.404Z,8.63
2019-03-05T11:35:48.401Z,8.39
2019-03-05T11:38:15.220Z,8.19
2019-03-05T11:40:42.075Z,8.16
2019-03-05T11:43:17.948Z,8.18
2019-03-05T11:45:45.108Z,9.00
2019-03-05T11:48:12.590Z,9.42
2019-03-05T11:50:39.529Z,8.92
2019-03-05T11:53:06.274Z,8.79
2019-03-05T11:55:33.000Z,8.50
2019-03-05T11:57:59.835Z,8.75
2019-03-05T12:00:30.921Z,10.63
2019-03-05T12:02:57.729Z,10.54
2019-03-05T12:05:24.321Z,10.86
2019-03-05T12:07:51.068Z,11.35
2019-03-05T12:10:18.606Z,11.04
2019-03-05T12:12:45.300Z,11.56
2019-03-05T12:15:13.279Z,11.85
2019-03-05T12:17:39.977Z,11.42
2019-03-05T12:20:08.647Z,11.65
2019-03-05T12:22:35.473Z,10.94
2019-03-05T12:25:03.644Z,11.63
2019-03-05T12:27:30.267Z,13.36
2019-03-05T12:29:57.069Z,13.86
2019-03-05T12:32:23.674Z,14.40
2019-03-05T12:34:50.425Z,13.98
2019-03-05T12:37:17.141Z,14.70
2019-03-05T12:39:43.899Z,13.98
2019-03-05T12:42:10.494Z,12.95
2019-03-05T12:44:37.586Z,13.17
2019-03-05T12:47:04.381Z,11.77
2019-03-05T12:49:31.099Z,11.97
2019-03-05T12:51:57.864Z,10.82
2019-03-05T12:54:24.487Z,10.32
2019-03-05T12:56:51.172Z,9.83
2019-03-05T12:59:17.772Z,9.74
2019-03-05T13:01:44.476Z,10.69
2019-03-05T13:04:11.182Z,10.00
2019-03-05T13:06:37.994Z,9.56
2019-03-05T13:09:06.807Z,9.37
2019-03-05T13:11:33.407Z,9.19
2019-03-05T13:14:06.219Z,9.03
2019-03-05T13:16:28.669Z,8.61
2019-03-05T13:18:55.264Z,8.51
2019-03-05T13:21:22.006Z,8.64
2019-03-05T13:23:48.610Z,8.87
2019-03-05T13:26:15.239Z,8.87
2019-03-05T13:28:41.966Z,9.66
2019-03-05T13:31:08.802Z,10.02
2019-03-05T13:33:37.967Z,9.81
2019-03-05T13:36:12.209Z,11.86
2019-03-05T13:38:35.115Z,11.00
2019-03-05T13:41:01.928Z,10.91
2019-03-05T13:43:28.736Z,10.28
2019-03-05T13:45:55.357Z,10.20
2019-03-05T13:49:19.427Z,12.59
2019-03-05T13:52:12.702Z,12.55
2019-03-05T13:55:26.827Z,14.01
2019-03-05T13:58:08.236Z,13.87
2019-03-05T14:00:34.976Z,12.20
2019-03-05T14:03:16.277Z,11.08
2019-03-05T14:05:58.887Z,10.84
2019-03-05T14:08:58.172Z,11.60
2019-03-05T14:11:25.000Z,11.79
2019-03-05T14:13:51.931Z,10.35
2019-03-05T14:16:19.786Z,10.66
2019-03-05T14:18:46.483Z,10.67
2019-03-05T14:21:13.167Z,11.86
2019-03-05T14:23:39.868Z,12.51
2019-03-05T14:26:06.782Z,12.53
2019-03-05T14:28:33.402Z,12.81
2019-03-05T14:31:00.140Z,12.15
2019-03-05T14:33:26.943Z,11.51
2019-03-05T14:35:53.672Z,13.55
2019-03-05T14:38:20.378Z,14.19
2019-03-05T14:40:47.248Z,14.36
2019-03-05T14:43:13.982Z,14.11
2019-03-05T14:45:40.824Z,12.37
2019-03-05T14:48:07.541Z,10.89
2019-03-05T14:50:34.509Z,10.85
2019-03-05T14:53:01.221Z,10.23
2019-03-05T14:55:28.034Z,10.10
2019-03-05T14:57:54.816Z,9.82
2019-03-05T15:00:21.850Z,9.75
2019-03-05T15:02:48.701Z,9.70
2019-03-05T15:05:15.779Z,9.71
2019-03-05T15:07:42.614Z,9.71
2019-03-05T15:10:09.407Z,9.81
2019-03-05T15:12:36.916Z,9.88
2019-03-05T15:15:06.817Z,10.16
2019-03-05T15:17:33.441Z,10.35
2019-03-05T15:20:00.227Z,10.61
2019-03-05T15:22:27.106Z,10.29
2019-03-05T15:24:53.768Z,10.92
2019-03-05T15:27:20.524Z,11.12
2019-03-05T15:29:47.228Z,11.54
2019-03-05T15:32:13.851Z,11.61
2019-03-05T15:34:40.487Z,11.28
2019-03-05T15:37:07.202Z,10.50
2019-03-05T15:39:33.760Z,10.51
2019-03-05T15:42:03.894Z,11.11
2019-03-05T15:44:30.517Z,10.91
2019-03-05T15:46:57.233Z,10.50
2019-03-05T15:49:24.001Z,10.40
2019-03-05T15:51:50.678Z,10.61
2019-03-05T15:54:17.225Z,10.36
2019-03-05T15:56:43.860Z,10.25
2019-03-05T15:59:10.476Z,10.17
2019-03-05T16:01:37.093Z,10.02
2019-03-05T16:04:03.812Z,9.77
2019-03-05T16:06:34.059Z,9.47
2019-03-05T16:09:02.261Z,9.48
2019-03-05T16:11:30.250Z,9.39
2019-03-05T16:13:57.929Z,9.29
2019-03-05T16:16:25.021Z,9.18
2019-03-05T16:18:51.638Z,9.04
2019-03-05T16:21:18.438Z,9.03
2019-03-05T16:23:45.070Z,9.10
2019-03-05T16:26:11.698Z,9.07
2019-03-05T16:28:39.327Z,9.15
2019-03-05T16:31:21.800Z,9.18
2019-03-05T16:33:57.474Z,9.13
2019-03-05T16:36:40.578Z,9.17
2019-03-05T16:39:31.740Z,9.29
2019-03-05T16:42:06.647Z,9.16
2019-03-05T16:44:43.403Z,9.14
2019-03-05T16:47:19.271Z,9.23
2019-03-05T16:50:00.421Z,9.01
2019-03-05T16:52:46.739Z,8.92
2019-03-05T16:55:27.608Z,8.78
2019-03-05T16:58:13.999Z,8.78
2019-03-05T17:01:03.344Z,8.65
2019-03-05T17:03:58.855Z,8.73
2019-03-05T17:06:36.383Z,8.47
2019-03-05T17:09:16.130Z,8.50
2019-03-05T17:11:54.366Z,8.46
2019-03-05T17:14:21.430Z,8.54
2019-03-05T17:16:48.317Z,8.42
2019-03-05T17:19:15.161Z,8.48
2019-03-05T17:21:41.872Z,8.55
2019-03-05T17:24:08.716Z,8.58
2019-03-05T17:26:35.455Z,8.72
2019-03-05T17:29:02.131Z,8.68
2019-03-05T17:31:28.950Z,8.70
2019-03-05T17:33:55.665Z,8.67
2019-03-05T17:36:22.674Z,8.49
2019-03-05T17:38:49.513Z,8.49
2019-03-05T17:41:16.322Z,8.51
2019-03-05T17:43:43.056Z,8.51
2019-03-05T17:46:09.828Z,8.48
2019-03-05T17:48:36.643Z,8.46
2019-03-05T17:51:03.587Z,8.34
2019-03-05T17:53:30.737Z,8.32
2019-03-05T17:55:57.351Z,8.13
2019-03-05T17:58:24.083Z,8.16
2019-03-05T18:00:51.848Z,8.12
2019-03-05T18:03:18.563Z,8.12
2019-03-05T18:05:45.165Z,7.93
2019-03-05T18:08:12.013Z,7.83
2019-03-05T18:10:38.620Z,7.84
2019-03-05T18:13:05.336Z,7.88
2019-03-05T18:15:32.071Z,7.63
2019-03-05T18:17:58.808Z,7.80
2019-03-05T18:20:25.523Z,7.66
2019-03-05T18:22:52.197Z,7.72
2019-03-05T18:25:19.165Z,7.55
2019-03-05T18:27:45.984Z,7.60
2019-03-05T18:30:14.593Z,7.53
2019-03-05T18:32:41.411Z,7.57
2019-03-05T18:35:08.988Z,7.56
2019-03-05T18:37:35.747Z,7.49
2019-03-05T18:40:02.781Z,7.47
2019-03-05T18:42:29.629Z,7.38
2019-03-05T18:44:56.858Z,7.40
2019-03-05T18:47:23.752Z,7.39
2019-03-05T18:49:50.816Z,7.48
2019-03-05T18:52:17.768Z,7.49
2019-03-05T18:54:47.084Z,7.41
2019-03-05T18:57:16.575Z,7.38
2019-03-05T18:59:43.261Z,7.43
2019-03-05T19:02:10.066Z,7.32
2019-03-05T19:04:36.693Z,7.35
2019-03-05T19:07:03.550Z,7.32
2019-03-05T19:09:30.179Z,7.29
2019-03-05T19:11:56.990Z,7.23
2019-03-05T19:14:23.824Z,7.28
2019-03-05T19:16:50.655Z,7.31
2019-03-05T19:19:17.513Z,7.24
2019-03-05T19:21:44.148Z,7.19
2019-03-05T19:24:10.752Z,7.25
2019-03-05T19:26:37.455Z,7.27
2019-03-05T19:29:04.503Z,7.30
2019-03-05T19:31:31.552Z,7.24
2019-03-05T19:33:58.213Z,7.14
2019-03-05T19:36:25.068Z,7.11
2019-03-05T19:38:51.678Z,7.12
2019-03-05T19:41:18.402Z,7.13
2019-03-05T19:43:45.133Z,7.19
2019-03-05T19:46:12.111Z,7.19
2019-03-05T19:48:38.705Z,7.06
2019-03-05T19:51:05.573Z,7.05
2019-03-05T19:53:32.178Z,7.04
2019-03-05T19:55:59.001Z,7.09
2019-03-05T19:58:25.757Z,7.07
2019-03-05T20:01:00.401Z,7.01
2019-03-05T20:03:27.252Z,6.89
2019-03-05T20:05:53.974Z,6.97
2019-03-05T20:08:21.162Z,7.01
2019-03-05T20:10:48.016Z,6.97
2019-03-05T20:13:15.017Z,6.94
2019-03-05T20:15:41.823Z,6.94
2019-03-05T20:18:08.562Z,6.89
2019-03-05T20:20:35.364Z,6.91
2019-03-05T20:23:02.093Z,6.84
2019-03-05T20:25:29.352Z,6.82
2019-03-05T20:27:56.157Z,6.78
2019-03-05T20:30:23.183Z,6.82
2019-03-05T20:32:50.441Z,6.77
2019-03-05T20:35:17.270Z,6.84
2019-03-05T20:37:44.119Z,6.72
2019-03-05T20:40:12.489Z,6.62
2019-03-05T20:42:39.285Z,6.69
2019-03-05T20:45:09.428Z,6.62
2019-03-05T20:47:36.239Z,6.61
2019-03-05T20:50:03.553Z,6.50
2019-03-05T20:52:30.169Z,6.47
2019-03-05T20:54:56.811Z,6.36
2019-03-05T20:57:23.504Z,6.52
2019-03-05T20:59:50.118Z,6.39
2019-03-05T21:02:16.857Z,6.34
2019-03-05T21:04:43.682Z,6.34
2019-03-05T21:07:10.482Z,6.16
2019-03-05T21:09:37.328Z,6.21
2019-03-05T21:12:04.124Z,6.41
2019-03-05T21:14:30.884Z,6.39
2019-03-05T21:16:57.498Z,6.43
2019-03-05T21:19:24.202Z,6.39
2019-03-05T21:21:51.017Z,6.27
2019-03-05T21:24:17.751Z,6.38
2019-03-05T21:26:44.354Z,6.37
2019-03-05T21:29:10.967Z,6.29
2019-03-05T21:31:37.698Z,6.26
2019-03-05T21:34:04.292Z,6.21
2019-03-05T21:36:32.798Z,6.19
2019-03-05T21:39:00.428Z,6.12
2019-03-05T21:41:27.462Z,6.18
2019-03-05T21:43:54.680Z,6.10
2019-03-05T21:46:22.324Z,6.12
2019-03-05T21:48:48.948Z,5.96
2019-03-05T21:51:15.867Z,6.13
2019-03-05T21:53:43.173Z,6.06
2019-03-05T21:56:09.994Z,5.87
2019-03-05T21:58:36.726Z,5.74
2019-03-05T22:01:04.322Z,5.78
2019-03-05T22:03:31.157Z,5.82
2019-03-05T22:05:58.985Z,5.76
2019-03-05T22:08:25.800Z,5.74
2019-03-05T22:10:52.968Z,5.83
2019-03-05T22:13:19.861Z,5.74
2019-03-05T22:15:46.718Z,5.73
2019-03-05T22:18:13.410Z,5.76
2019-03-05T22:20:40.162Z,5.69
2019-03-05T22:23:06.994Z,5.69
2019-03-05T22:25:34.382Z,5.50
2019-03-05T22:28:01.476Z,5.58
2019-03-05T22:30:28.908Z,5.63
2019-03-05T22:32:55.673Z,5.69
2019-03-05T22:35:22.792Z,5.59
2019-03-05T22:37:49.526Z,5.61
2019-03-05T22:40:16.356Z,5.53
2019-03-05T22:42:43.186Z,5.40
2019-03-05T22:45:15.634Z,5.50
2019-03-05T22:47:42.443Z,5.37
2019-03-05T22:50:09.266Z,5.27
2019-03-05T22:52:35.909Z,5.05
2019-03-05T22:55:02.866Z,5.02
2019-03-05T22:57:29.584Z,5.38
2019-03-05T22:59:56.196Z,5.26
2019-03-05T23:02:23.164Z,5.49
2019-03-05T23:04:49.993Z,5.15
2019-03-05T23:07:16.710Z,5.10
2019-03-05T23:09:43.298Z,5.11
2019-03-05T23:12:10.805Z,5.09
2019-03-05T23:14:37.629Z,5.41
2019-03-05T23:17:04.843Z,5.52
2019-03-05T23:19:31.736Z,5.61
2019-03-05T23:21:58.864Z,5.63
2019-03-05T23:24:25.587Z,5.78
2019-03-05T23:26:52.378Z,5.89
2019-03-05T23:29:23.865Z,5.85
2019-03-05T23:31:50.479Z,5.91
2019-03-05T23:34:18.479Z,5.91
2019-03-05T23:36:45.308Z,5.97
2019-03-05T23:39:15.742Z,6.04
2019-03-05T23:41:42.559Z,6.10
2019-03-05T23:44:09.587Z,6.09
2019-03-05T23:46:36.210Z,6.14
2019-03-05T23:49:03.739Z,6.13
2019-03-05T23:51:30.486Z,6.20
2019-03-05T23:53:57.371Z,6.11
2019-03-05T23:56:24.103Z,6.16
2019-03-05T23:58:50.916Z,6.25
